Weather at Gjakova Airport [CLOSED]

Public forecast

Using degrees Celsius for public forecast. Weather courtesy of forecast.io.

Closest aviation weather report (METAR) to Gjakova Airport

Closest report is Priština Adem Jashari International Airport, 28.2 nm (52.2 km) ENE.

2022/11/30 23:00 (retrieved 22 minutes ago)

BKPR 302300Z 36014KT 9999 SCT018 BKN025 03/02 Q1017 NOSIG

Closest aviation forecast (TAF) to Gjakova Airport

Forecast is more than 6 hours old.

Closest forecast is Kukës International Airport, 24.0 nm (44.4 km) S.

2022/11/30 12:00 Ammendment (retrieved 11 hours ago)

TAF AMD LAKU 301529Z 3012/0112 CNL